sensor_id;sensor_type;location;lat;lon;timestamp;P1;durP1;ratioP1;P2;durP2;ratioP2
37131;SDS011;23035;50.032;21.978;2023-08-24T00:04:15;15.73;;;8.03;;
37131;SDS011;23035;50.032;21.978;2023-08-24T00:09:19;16.98;;;7.35;;
37131;SDS011;23035;50.032;21.978;2023-08-24T00:14:24;13.60;;;7.40;;
37131;SDS011;23035;50.032;21.978;2023-08-24T00:19:29;13.00;;;7.35;;
37131;SDS011;23035;50.032;21.978;2023-08-24T00:29:37;14.07;;;8.25;;
37131;SDS011;23035;50.032;21.978;2023-08-24T00:34:42;14.45;;;8.02;;
37131;SDS011;23035;50.032;21.978;2023-08-24T00:39:46;10.82;;;7.38;;
37131;SDS011;23035;50.032;21.978;2023-08-24T00:44:51;14.90;;;7.95;;
37131;SDS011;23035;50.032;21.978;2023-08-24T00:49:56;11.77;;;7.10;;
37131;SDS011;23035;50.032;21.978;2023-08-24T01:00:05;13.65;;;8.00;;
37131;SDS011;23035;50.032;21.978;2023-08-24T01:05:13;14.45;;;7.53;;
37131;SDS011;23035;50.032;21.978;2023-08-24T01:10:19;19.80;;;8.48;;
37131;SDS011;23035;50.032;21.978;2023-08-24T01:15:25;12.63;;;7.55;;
37131;SDS011;23035;50.032;21.978;2023-08-24T01:20:36;11.75;;;7.43;;
37131;SDS011;23035;50.032;21.978;2023-08-24T01:25:42;13.50;;;7.80;;
37131;SDS011;23035;50.032;21.978;2023-08-24T01:30:56;10.48;;;6.97;;
37131;SDS011;23035;50.032;21.978;2023-08-24T01:36:02;12.40;;;7.60;;
37131;SDS011;23035;50.032;21.978;2023-08-24T01:41:09;13.73;;;7.30;;
37131;SDS011;23035;50.032;21.978;2023-08-24T01:46:16;12.93;;;8.30;;
37131;SDS011;23035;50.032;21.978;2023-08-24T01:51:24;13.38;;;7.80;;
37131;SDS011;23035;50.032;21.978;2023-08-24T01:56:28;14.35;;;7.90;;
37131;SDS011;23035;50.032;21.978;2023-08-24T02:01:34;16.38;;;9.15;;
37131;SDS011;23035;50.032;21.978;2023-08-24T02:06:38;16.55;;;9.40;;
37131;SDS011;23035;50.032;21.978;2023-08-24T02:11:42;22.58;;;11.48;;
37131;SDS011;23035;50.032;21.978;2023-08-24T02:16:47;22.15;;;10.40;;
37131;SDS011;23035;50.032;21.978;2023-08-24T02:26:55;22.00;;;10.73;;
37131;SDS011;23035;50.032;21.978;2023-08-24T02:32:00;17.65;;;9.80;;
37131;SDS011;23035;50.032;21.978;2023-08-24T02:37:05;18.70;;;9.88;;
37131;SDS011;23035;50.032;21.978;2023-08-24T02:42:09;14.55;;;8.38;;
37131;SDS011;23035;50.032;21.978;2023-08-24T02:47:14;18.45;;;9.20;;
37131;SDS011;23035;50.032;21.978;2023-08-24T02:52:18;15.05;;;8.90;;
37131;SDS011;23035;50.032;21.978;2023-08-24T02:57:22;19.95;;;9.02;;
37131;SDS011;23035;50.032;21.978;2023-08-24T03:02:28;12.73;;;7.40;;
37131;SDS011;23035;50.032;21.978;2023-08-24T03:07:32;17.20;;;8.18;;
37131;SDS011;23035;50.032;21.978;2023-08-24T03:12:36;16.67;;;8.27;;
37131;SDS011;23035;50.032;21.978;2023-08-24T03:17:42;18.15;;;8.00;;
37131;SDS011;23035;50.032;21.978;2023-08-24T03:22:46;13.23;;;7.72;;
37131;SDS011;23035;50.032;21.978;2023-08-24T03:27:50;13.32;;;7.63;;
37131;SDS011;23035;50.032;21.978;2023-08-24T03:32:56;11.10;;;7.07;;
37131;SDS011;23035;50.032;21.978;2023-08-24T03:38:02;17.45;;;8.30;;
37131;SDS011;23035;50.032;21.978;2023-08-24T03:43:06;10.80;;;6.68;;
37131;SDS011;23035;50.032;21.978;2023-08-24T03:48:11;13.25;;;7.20;;
37131;SDS011;23035;50.032;21.978;2023-08-24T03:53:17;16.25;;;7.90;;
37131;SDS011;23035;50.032;21.978;2023-08-24T03:58:22;17.02;;;8.05;;
37131;SDS011;23035;50.032;21.978;2023-08-24T04:03:28;15.52;;;8.27;;
37131;SDS011;23035;50.032;21.978;2023-08-24T04:08:32;13.35;;;7.80;;
37131;SDS011;23035;50.032;21.978;2023-08-24T04:13:38;11.18;;;7.82;;
37131;SDS011;23035;50.032;21.978;2023-08-24T04:18:43;16.98;;;8.38;;
37131;SDS011;23035;50.032;21.978;2023-08-24T04:23:47;10.80;;;7.47;;
37131;SDS011;23035;50.032;21.978;2023-08-24T04:28:51;17.23;;;8.00;;
37131;SDS011;23035;50.032;21.978;2023-08-24T04:33:57;20.70;;;7.85;;
37131;SDS011;23035;50.032;21.978;2023-08-24T04:39:04;16.83;;;9.20;;
37131;SDS011;23035;50.032;21.978;2023-08-24T04:44:12;11.93;;;8.05;;
37131;SDS011;23035;50.032;21.978;2023-08-24T04:49:21;18.42;;;8.57;;
37131;SDS011;23035;50.032;21.978;2023-08-24T04:54:29;12.52;;;8.80;;
37131;SDS011;23035;50.032;21.978;2023-08-24T04:59:35;13.00;;;8.10;;
37131;SDS011;23035;50.032;21.978;2023-08-24T05:04:44;18.90;;;7.97;;
37131;SDS011;23035;50.032;21.978;2023-08-24T05:09:53;12.93;;;7.78;;
37131;SDS011;23035;50.032;21.978;2023-08-24T05:15:00;13.70;;;8.50;;
37131;SDS011;23035;50.032;21.978;2023-08-24T05:20:07;12.30;;;8.07;;
37131;SDS011;23035;50.032;21.978;2023-08-24T05:25:12;16.48;;;9.40;;
37131;SDS011;23035;50.032;21.978;2023-08-24T05:30:19;26.52;;;13.63;;
37131;SDS011;23035;50.032;21.978;2023-08-24T05:35:24;29.63;;;13.43;;
37131;SDS011;23035;50.032;21.978;2023-08-24T05:40:30;23.75;;;9.95;;
37131;SDS011;23035;50.032;21.978;2023-08-24T05:45:36;23.55;;;9.75;;
37131;SDS011;23035;50.032;21.978;2023-08-24T06:00:55;13.70;;;7.07;;
37131;SDS011;23035;50.032;21.978;2023-08-24T06:06:02;10.93;;;6.80;;
37131;SDS011;23035;50.032;21.978;2023-08-24T06:11:07;13.65;;;7.25;;
37131;SDS011;23035;50.032;21.978;2023-08-24T06:16:11;11.43;;;6.82;;
37131;SDS011;23035;50.032;21.978;2023-08-24T06:21:17;10.55;;;6.43;;
37131;SDS011;23035;50.032;21.978;2023-08-24T06:26:21;15.18;;;6.80;;
37131;SDS011;23035;50.032;21.978;2023-08-24T06:31:25;21.60;;;11.82;;
37131;SDS011;23035;50.032;21.978;2023-08-24T06:36:30;16.33;;;10.50;;
37131;SDS011;23035;50.032;21.978;2023-08-24T06:41:34;16.38;;;8.18;;
37131;SDS011;23035;50.032;21.978;2023-08-24T06:46:42;9.82;;;5.70;;
37131;SDS011;23035;50.032;21.978;2023-08-24T06:51:47;12.23;;;6.93;;
37131;SDS011;23035;50.032;21.978;2023-08-24T06:56:51;13.63;;;9.52;;
37131;SDS011;23035;50.032;21.978;2023-08-24T07:01:55;14.40;;;8.30;;
37131;SDS011;23035;50.032;21.978;2023-08-24T07:07:01;16.80;;;7.05;;
37131;SDS011;23035;50.032;21.978;2023-08-24T07:12:05;10.75;;;6.07;;
37131;SDS011;23035;50.032;21.978;2023-08-24T07:17:12;14.90;;;6.22;;
37131;SDS011;23035;50.032;21.978;2023-08-24T07:22:18;18.03;;;10.47;;
37131;SDS011;23035;50.032;21.978;2023-08-24T07:27:22;14.10;;;6.05;;
37131;SDS011;23035;50.032;21.978;2023-08-24T07:32:26;13.20;;;5.20;;
37131;SDS011;23035;50.032;21.978;2023-08-24T07:37:32;11.13;;;5.20;;
37131;SDS011;23035;50.032;21.978;2023-08-24T07:42:42;10.57;;;5.25;;
37131;SDS011;23035;50.032;21.978;2023-08-24T07:47:47;10.52;;;4.40;;
37131;SDS011;23035;50.032;21.978;2023-08-24T07:57:59;10.40;;;6.10;;
37131;SDS011;23035;50.032;21.978;2023-08-24T08:03:03;8.10;;;4.67;;
37131;SDS011;23035;50.032;21.978;2023-08-24T08:08:09;18.27;;;12.38;;
37131;SDS011;23035;50.032;21.978;2023-08-24T08:13:15;8.02;;;3.10;;
37131;SDS011;23035;50.032;21.978;2023-08-24T08:18:19;6.93;;;4.30;;
37131;SDS011;23035;50.032;21.978;2023-08-24T08:23:24;7.43;;;2.60;;
37131;SDS011;23035;50.032;21.978;2023-08-24T08:28:29;6.22;;;3.10;;
37131;SDS011;23035;50.032;21.978;2023-08-24T08:33:36;4.15;;;2.75;;
37131;SDS011;23035;50.032;21.978;2023-08-24T08:38:42;8.93;;;3.20;;
37131;SDS011;23035;50.032;21.978;2023-08-24T08:43:46;7.47;;;3.08;;
37131;SDS011;23035;50.032;21.978;2023-08-24T08:48:51;6.57;;;3.35;;
37131;SDS011;23035;50.032;21.978;2023-08-24T08:53:57;8.27;;;4.50;;
37131;SDS011;23035;50.032;21.978;2023-08-24T08:59:02;10.38;;;3.50;;
37131;SDS011;23035;50.032;21.978;2023-08-24T09:04:11;7.88;;;3.72;;
37131;SDS011;23035;50.032;21.978;2023-08-24T09:09:16;10.93;;;6.40;;
37131;SDS011;23035;50.032;21.978;2023-08-24T09:14:21;8.15;;;3.70;;
37131;SDS011;23035;50.032;21.978;2023-08-24T09:19:27;7.50;;;3.78;;
37131;SDS011;23035;50.032;21.978;2023-08-24T09:24:34;6.90;;;3.15;;
37131;SDS011;23035;50.032;21.978;2023-08-24T09:29:39;6.80;;;3.03;;
37131;SDS011;23035;50.032;21.978;2023-08-24T09:34:43;5.32;;;3.30;;
37131;SDS011;23035;50.032;21.978;2023-08-24T09:39:49;5.60;;;3.58;;
37131;SDS011;23035;50.032;21.978;2023-08-24T09:44:53;7.50;;;3.28;;
37131;SDS011;23035;50.032;21.978;2023-08-24T09:49:57;9.77;;;3.93;;
37131;SDS011;23035;50.032;21.978;2023-08-24T09:55:05;5.40;;;3.53;;
37131;SDS011;23035;50.032;21.978;2023-08-24T10:00:13;6.93;;;3.35;;
37131;SDS011;23035;50.032;21.978;2023-08-24T10:05:19;6.88;;;3.22;;
37131;SDS011;23035;50.032;21.978;2023-08-24T10:10:47;6.28;;;2.88;;
37131;SDS011;23035;50.032;21.978;2023-08-24T10:15:56;4.32;;;3.13;;
37131;SDS011;23035;50.032;21.978;2023-08-24T10:21:01;7.90;;;3.40;;
37131;SDS011;23035;50.032;21.978;2023-08-24T10:31:12;11.02;;;3.42;;
37131;SDS011;23035;50.032;21.978;2023-08-24T10:36:17;5.70;;;3.10;;
37131;SDS011;23035;50.032;21.978;2023-08-24T10:41:27;4.88;;;2.88;;
37131;SDS011;23035;50.032;21.978;2023-08-24T10:46:34;7.93;;;2.78;;
37131;SDS011;23035;50.032;21.978;2023-08-24T10:51:42;9.05;;;2.50;;
37131;SDS011;23035;50.032;21.978;2023-08-24T10:56:53;8.05;;;3.05;;
37131;SDS011;23035;50.032;21.978;2023-08-24T11:01:59;7.05;;;3.08;;
37131;SDS011;23035;50.032;21.978;2023-08-24T11:07:03;5.70;;;2.92;;
37131;SDS011;23035;50.032;21.978;2023-08-24T11:12:09;6.25;;;3.03;;
37131;SDS011;23035;50.032;21.978;2023-08-24T11:17:20;6.20;;;4.40;;
37131;SDS011;23035;50.032;21.978;2023-08-24T11:22:25;7.65;;;3.35;;
37131;SDS011;23035;50.032;21.978;2023-08-24T11:32:37;4.18;;;2.70;;
37131;SDS011;23035;50.032;21.978;2023-08-24T11:37:41;3.33;;;2.53;;
37131;SDS011;23035;50.032;21.978;2023-08-24T11:42:46;5.15;;;2.30;;
37131;SDS011;23035;50.032;21.978;2023-08-24T11:47:54;8.75;;;2.97;;
37131;SDS011;23035;50.032;21.978;2023-08-24T11:52:58;5.75;;;2.78;;
37131;SDS011;23035;50.032;21.978;2023-08-24T11:58:05;3.30;;;2.55;;
37131;SDS011;23035;50.032;21.978;2023-08-24T12:03:16;7.07;;;3.40;;
37131;SDS011;23035;50.032;21.978;2023-08-24T12:08:22;4.15;;;2.45;;
37131;SDS011;23035;50.032;21.978;2023-08-24T12:13:27;5.65;;;2.70;;
37131;SDS011;23035;50.032;21.978;2023-08-24T12:18:45;7.53;;;2.92;;
37131;SDS011;23035;50.032;21.978;2023-08-24T12:23:57;4.82;;;3.47;;
37131;SDS011;23035;50.032;21.978;2023-08-24T12:29:04;6.07;;;3.38;;
37131;SDS011;23035;50.032;21.978;2023-08-24T12:34:09;10.50;;;3.40;;
37131;SDS011;23035;50.032;21.978;2023-08-24T12:39:14;5.75;;;3.40;;
37131;SDS011;23035;50.032;21.978;2023-08-24T12:44:20;5.65;;;3.13;;
37131;SDS011;23035;50.032;21.978;2023-08-24T12:49:27;4.50;;;3.03;;
37131;SDS011;23035;50.032;21.978;2023-08-24T12:54:31;6.45;;;3.47;;
37131;SDS011;23035;50.032;21.978;2023-08-24T12:59:37;3.17;;;2.65;;
37131;SDS011;23035;50.032;21.978;2023-08-24T13:04:41;3.75;;;2.55;;
37131;SDS011;23035;50.032;21.978;2023-08-24T13:09:48;4.82;;;2.95;;
37131;SDS011;23035;50.032;21.978;2023-08-24T13:14:57;4.03;;;2.80;;
37131;SDS011;23035;50.032;21.978;2023-08-24T13:20:01;10.93;;;2.80;;
37131;SDS011;23035;50.032;21.978;2023-08-24T13:25:07;3.90;;;2.70;;
37131;SDS011;23035;50.032;21.978;2023-08-24T13:30:13;4.22;;;2.50;;
37131;SDS011;23035;50.032;21.978;2023-08-24T13:35:17;5.75;;;3.00;;
37131;SDS011;23035;50.032;21.978;2023-08-24T13:45:27;3.37;;;2.80;;
37131;SDS011;23035;50.032;21.978;2023-08-24T13:50:33;4.07;;;2.92;;
37131;SDS011;23035;50.032;21.978;2023-08-24T13:55:38;9.02;;;3.33;;
37131;SDS011;23035;50.032;21.978;2023-08-24T14:00:45;7.80;;;2.92;;
37131;SDS011;23035;50.032;21.978;2023-08-24T14:05:49;4.10;;;3.00;;
37131;SDS011;23035;50.032;21.978;2023-08-24T14:10:53;5.93;;;2.90;;
37131;SDS011;23035;50.032;21.978;2023-08-24T14:15:59;6.35;;;3.15;;
37131;SDS011;23035;50.032;21.978;2023-08-24T14:21:03;4.45;;;3.00;;
37131;SDS011;23035;50.032;21.978;2023-08-24T14:26:09;7.07;;;3.13;;
37131;SDS011;23035;50.032;21.978;2023-08-24T14:31:15;7.28;;;3.25;;
37131;SDS011;23035;50.032;21.978;2023-08-24T14:36:19;4.60;;;2.97;;
37131;SDS011;23035;50.032;21.978;2023-08-24T14:41:24;4.00;;;3.20;;
37131;SDS011;23035;50.032;21.978;2023-08-24T14:46:29;4.45;;;3.47;;
37131;SDS011;23035;50.032;21.978;2023-08-24T14:51:35;7.13;;;3.38;;
37131;SDS011;23035;50.032;21.978;2023-08-24T15:01:44;8.65;;;3.42;;
37131;SDS011;23035;50.032;21.978;2023-08-24T15:06:49;4.65;;;3.20;;
37131;SDS011;23035;50.032;21.978;2023-08-24T15:11:53;6.43;;;3.42;;
37131;SDS011;23035;50.032;21.978;2023-08-24T15:16:58;7.93;;;3.75;;
37131;SDS011;23035;50.032;21.978;2023-08-24T15:22:02;5.20;;;3.00;;
37131;SDS011;23035;50.032;21.978;2023-08-24T15:27:07;7.78;;;3.38;;
37131;SDS011;23035;50.032;21.978;2023-08-24T15:32:12;5.75;;;3.33;;
37131;SDS011;23035;50.032;21.978;2023-08-24T15:37:16;5.63;;;3.30;;
37131;SDS011;23035;50.032;21.978;2023-08-24T15:42:20;6.72;;;3.72;;
37131;SDS011;23035;50.032;21.978;2023-08-24T15:47:26;8.52;;;4.07;;
37131;SDS011;23035;50.032;21.978;2023-08-24T15:52:30;5.28;;;3.20;;
37131;SDS011;23035;50.032;21.978;2023-08-24T15:57:34;6.57;;;3.05;;
37131;SDS011;23035;50.032;21.978;2023-08-24T16:02:39;7.93;;;3.40;;
37131;SDS011;23035;50.032;21.978;2023-08-24T16:07:43;6.95;;;3.25;;
37131;SDS011;23035;50.032;21.978;2023-08-24T16:17:55;9.30;;;3.33;;
37131;SDS011;23035;50.032;21.978;2023-08-24T16:22:59;5.03;;;3.42;;
37131;SDS011;23035;50.032;21.978;2023-08-24T16:33:12;9.25;;;3.88;;
37131;SDS011;23035;50.032;21.978;2023-08-24T16:38:16;7.38;;;3.60;;
37131;SDS011;23035;50.032;21.978;2023-08-24T16:43:20;6.30;;;3.47;;
37131;SDS011;23035;50.032;21.978;2023-08-24T16:48:26;7.28;;;3.70;;
37131;SDS011;23035;50.032;21.978;2023-08-24T16:53:30;8.00;;;3.88;;
37131;SDS011;23035;50.032;21.978;2023-08-24T16:58:34;7.00;;;3.50;;
37131;SDS011;23035;50.032;21.978;2023-08-24T17:03:39;10.53;;;3.63;;
37131;SDS011;23035;50.032;21.978;2023-08-24T17:08:43;5.68;;;3.80;;
37131;SDS011;23035;50.032;21.978;2023-08-24T17:13:47;7.45;;;3.83;;
37131;SDS011;23035;50.032;21.978;2023-08-24T17:18:54;10.65;;;4.10;;
37131;SDS011;23035;50.032;21.978;2023-08-24T17:23:58;8.15;;;3.92;;
37131;SDS011;23035;50.032;21.978;2023-08-24T17:29:02;6.47;;;3.53;;
37131;SDS011;23035;50.032;21.978;2023-08-24T17:34:08;8.10;;;3.67;;
37131;SDS011;23035;50.032;21.978;2023-08-24T17:39:12;7.30;;;4.10;;
37131;SDS011;23035;50.032;21.978;2023-08-24T17:44:16;9.35;;;4.03;;
37131;SDS011;23035;50.032;21.978;2023-08-24T17:49:21;6.20;;;4.32;;
37131;SDS011;23035;50.032;21.978;2023-08-24T17:54:25;7.13;;;3.88;;
37131;SDS011;23035;50.032;21.978;2023-08-24T17:59:29;10.45;;;4.78;;
37131;SDS011;23035;50.032;21.978;2023-08-24T18:04:34;8.93;;;4.25;;
37131;SDS011;23035;50.032;21.978;2023-08-24T18:09:39;11.23;;;3.75;;
37131;SDS011;23035;50.032;21.978;2023-08-24T18:14:43;9.10;;;4.40;;
37131;SDS011;23035;50.032;21.978;2023-08-24T18:19:48;11.50;;;4.82;;
37131;SDS011;23035;50.032;21.978;2023-08-24T18:24:52;9.82;;;4.78;;
37131;SDS011;23035;50.032;21.978;2023-08-24T18:29:56;14.45;;;5.25;;
37131;SDS011;23035;50.032;21.978;2023-08-24T18:35:02;13.60;;;5.57;;
37131;SDS011;23035;50.032;21.978;2023-08-24T18:40:07;13.02;;;6.55;;
37131;SDS011;23035;50.032;21.978;2023-08-24T18:45:12;19.02;;;8.82;;
37131;SDS011;23035;50.032;21.978;2023-08-24T18:50:17;14.07;;;7.55;;
37131;SDS011;23035;50.032;21.978;2023-08-24T18:55:21;23.00;;;11.38;;
37131;SDS011;23035;50.032;21.978;2023-08-24T19:00:25;30.30;;;11.77;;
37131;SDS011;23035;50.032;21.978;2023-08-24T19:05:31;32.67;;;12.23;;
37131;SDS011;23035;50.032;21.978;2023-08-24T19:10:37;31.48;;;12.52;;
37131;SDS011;23035;50.032;21.978;2023-08-24T19:15:41;36.97;;;14.50;;
37131;SDS011;23035;50.032;21.978;2023-08-24T19:20:47;44.30;;;18.10;;
37131;SDS011;23035;50.032;21.978;2023-08-24T19:30:55;34.60;;;17.65;;
37131;SDS011;23035;50.032;21.978;2023-08-24T19:36:01;40.90;;;19.57;;
37131;SDS011;23035;50.032;21.978;2023-08-24T19:41:05;35.53;;;17.30;;
37131;SDS011;23035;50.032;21.978;2023-08-24T19:46:09;36.42;;;19.27;;
37131;SDS011;23035;50.032;21.978;2023-08-24T19:51:16;41.95;;;19.40;;
37131;SDS011;23035;50.032;21.978;2023-08-24T19:56:20;47.33;;;19.48;;
37131;SDS011;23035;50.032;21.978;2023-08-24T20:01:25;33.20;;;17.42;;
37131;SDS011;23035;50.032;21.978;2023-08-24T20:06:31;36.05;;;17.73;;
37131;SDS011;23035;50.032;21.978;2023-08-24T20:11:35;33.05;;;16.38;;
37131;SDS011;23035;50.032;21.978;2023-08-24T20:16:40;22.97;;;12.10;;
37131;SDS011;23035;50.032;21.978;2023-08-24T20:21:45;23.45;;;11.65;;
37131;SDS011;23035;50.032;21.978;2023-08-24T20:26:49;23.42;;;10.32;;
37131;SDS011;23035;50.032;21.978;2023-08-24T20:31:53;19.63;;;11.10;;
37131;SDS011;23035;50.032;21.978;2023-08-24T20:36:59;29.13;;;13.90;;
37131;SDS011;23035;50.032;21.978;2023-08-24T20:42:12;20.58;;;11.57;;
37131;SDS011;23035;50.032;21.978;2023-08-24T20:47:18;22.70;;;11.65;;
37131;SDS011;23035;50.032;21.978;2023-08-24T20:52:25;24.25;;;12.50;;
37131;SDS011;23035;50.032;21.978;2023-08-24T21:02:33;26.33;;;13.30;;
37131;SDS011;23035;50.032;21.978;2023-08-24T21:07:38;27.58;;;12.90;;
37131;SDS011;23035;50.032;21.978;2023-08-24T21:12:42;29.60;;;13.27;;
37131;SDS011;23035;50.032;21.978;2023-08-24T21:17:46;20.08;;;11.82;;
37131;SDS011;23035;50.032;21.978;2023-08-24T21:22:52;26.65;;;12.57;;
37131;SDS011;23035;50.032;21.978;2023-08-24T21:33:01;26.65;;;12.63;;
37131;SDS011;23035;50.032;21.978;2023-08-24T21:38:07;22.65;;;12.27;;
37131;SDS011;23035;50.032;21.978;2023-08-24T21:43:12;19.80;;;11.18;;
37131;SDS011;23035;50.032;21.978;2023-08-24T21:48:16;21.55;;;11.77;;
37131;SDS011;23035;50.032;21.978;2023-08-24T21:53:21;24.10;;;10.88;;
37131;SDS011;23035;50.032;21.978;2023-08-24T21:58:25;19.60;;;10.60;;
37131;SDS011;23035;50.032;21.978;2023-08-24T22:03:31;25.30;;;11.13;;
37131;SDS011;23035;50.032;21.978;2023-08-24T22:08:38;21.00;;;10.80;;
37131;SDS011;23035;50.032;21.978;2023-08-24T22:13:42;20.92;;;10.60;;
37131;SDS011;23035;50.032;21.978;2023-08-24T22:18:47;17.00;;;9.83;;
37131;SDS011;23035;50.032;21.978;2023-08-24T22:23:52;19.80;;;10.00;;
37131;SDS011;23035;50.032;21.978;2023-08-24T22:28:57;23.85;;;10.35;;
37131;SDS011;23035;50.032;21.978;2023-08-24T22:34:01;19.63;;;10.73;;
37131;SDS011;23035;50.032;21.978;2023-08-24T22:39:07;16.48;;;10.10;;
37131;SDS011;23035;50.032;21.978;2023-08-24T22:49:15;19.85;;;9.15;;
37131;SDS011;23035;50.032;21.978;2023-08-24T22:54:21;16.92;;;9.07;;
37131;SDS011;23035;50.032;21.978;2023-08-24T22:59:25;18.10;;;8.55;;
37131;SDS011;23035;50.032;21.978;2023-08-24T23:04:29;16.40;;;7.95;;
37131;SDS011;23035;50.032;21.978;2023-08-24T23:09:35;14.15;;;8.25;;
37131;SDS011;23035;50.032;21.978;2023-08-24T23:14:39;18.40;;;7.88;;
37131;SDS011;23035;50.032;21.978;2023-08-24T23:19:43;12.52;;;7.28;;
37131;SDS011;23035;50.032;21.978;2023-08-24T23:24:49;11.15;;;7.22;;
37131;SDS011;23035;50.032;21.978;2023-08-24T23:34:59;15.65;;;7.70;;
37131;SDS011;23035;50.032;21.978;2023-08-24T23:40:05;12.32;;;7.47;;
37131;SDS011;23035;50.032;21.978;2023-08-24T23:45:11;13.20;;;6.90;;
37131;SDS011;23035;50.032;21.978;2023-08-24T23:50:16;11.07;;;7.10;;
37131;SDS011;23035;50.032;21.978;2023-08-24T23:55:21;13.35;;;7.50;;
